createdAt,value
2023-02-06T00:00:51.828Z,2.92
2023-02-06T00:03:53.345Z,2.87
2023-02-06T00:06:54.773Z,2.80
2023-02-06T00:09:56.213Z,2.83
2023-02-06T00:12:57.618Z,2.81
2023-02-06T00:15:59.281Z,2.78
2023-02-06T00:19:01.333Z,2.82
2023-02-06T00:22:02.803Z,2.82
2023-02-06T00:25:04.996Z,2.86
2023-02-06T00:28:06.542Z,2.89
2023-02-06T00:31:08.603Z,2.84
2023-02-06T00:34:10.208Z,2.83
2023-02-06T00:37:11.838Z,2.85
2023-02-06T00:40:13.362Z,2.77
2023-02-06T00:43:14.930Z,2.75
2023-02-06T00:46:16.565Z,2.73
2023-02-06T00:49:18.504Z,2.76
2023-02-06T00:52:19.945Z,2.78
2023-02-06T00:55:21.511Z,2.79
2023-02-06T00:58:23.572Z,2.78
2023-02-06T01:01:26.322Z,2.70
2023-02-06T01:04:27.873Z,2.74
2023-02-06T01:07:29.626Z,2.74
2023-02-06T01:10:32.753Z,2.77
2023-02-06T01:13:34.698Z,2.69
2023-02-06T01:16:36.280Z,2.56
2023-02-06T01:19:38.281Z,2.50
2023-02-06T01:22:40.578Z,2.56
2023-02-06T01:25:42.118Z,2.56
2023-02-06T01:28:46.153Z,2.58
2023-02-06T01:31:48.196Z,2.60
2023-02-06T01:34:49.675Z,2.65
2023-02-06T01:37:51.148Z,2.63
2023-02-06T01:40:57.638Z,2.45
2023-02-06T01:44:22.417Z,2.46
2023-02-06T01:47:23.947Z,2.56
2023-02-06T01:50:25.598Z,2.58
2023-02-06T01:53:28.397Z,2.63
2023-02-06T01:56:33.519Z,2.56
2023-02-06T01:59:37.630Z,2.65
2023-02-06T02:02:43.536Z,2.73
2023-02-06T02:05:46.118Z,2.66
2023-02-06T02:08:50.355Z,2.65
2023-02-06T02:11:51.756Z,2.59
2023-02-06T02:14:54.513Z,2.50
2023-02-06T02:18:37.376Z,2.46
2023-02-06T02:22:10.089Z,2.45
2023-02-06T02:25:14.446Z,2.44
2023-02-06T02:28:21.851Z,2.39
2023-02-06T02:31:42.160Z,2.35
2023-02-06T02:35:05.707Z,2.21
2023-02-06T02:38:18.526Z,2.14
2023-02-06T02:41:48.823Z,2.03
2023-02-06T02:44:55.398Z,1.92
2023-02-06T02:48:21.867Z,1.79
2023-02-06T02:51:24.619Z,1.69
2023-02-06T02:54:26.391Z,1.58
2023-02-06T02:57:31.647Z,1.49
2023-02-06T03:00:39.809Z,1.42
2023-02-06T03:03:44.529Z,1.32
2023-02-06T03:06:55.217Z,1.24
2023-02-06T03:10:05.612Z,1.13
2023-02-06T03:13:26.633Z,1.00
2023-02-06T03:16:38.785Z,1.01
2023-02-06T03:19:45.926Z,0.90
2023-02-06T03:22:50.834Z,0.85
2023-02-06T03:25:56.215Z,0.84
2023-02-06T03:29:02.399Z,0.80
2023-02-06T03:32:10.960Z,0.81
2023-02-06T03:35:20.366Z,0.71
2023-02-06T03:38:24.656Z,0.56
2023-02-06T03:41:31.850Z,0.55
2023-02-06T03:44:39.685Z,0.56
2023-02-06T03:47:42.480Z,0.61
2023-02-06T03:50:47.117Z,0.56
2023-02-06T03:53:51.980Z,0.52
2023-02-06T03:56:57.828Z,0.53
2023-02-06T03:59:59.520Z,0.50
2023-02-06T04:03:01.329Z,0.50
2023-02-06T04:06:02.946Z,0.53
2023-02-06T04:09:04.501Z,0.55
2023-02-06T04:12:06.444Z,0.62
2023-02-06T04:15:08.299Z,0.70
2023-02-06T04:18:09.736Z,0.74
2023-02-06T04:21:11.247Z,0.79
2023-02-06T04:24:12.731Z,0.83
2023-02-06T04:27:14.820Z,0.91
2023-02-06T04:30:17.893Z,0.96
2023-02-06T04:33:19.443Z,0.99
2023-02-06T04:36:21.060Z,1.00
2023-02-06T04:39:22.560Z,1.08
2023-02-06T04:42:24.121Z,1.09
2023-02-06T04:45:25.574Z,1.09
2023-02-06T04:48:27.117Z,1.10
2023-02-06T04:51:28.588Z,1.13
2023-02-06T04:54:32.574Z,1.13
2023-02-06T04:57:34.092Z,1.11
2023-02-06T05:00:37.331Z,1.12
2023-02-06T05:03:40.001Z,1.18
2023-02-06T05:06:41.571Z,1.20
2023-02-06T05:09:43.048Z,1.24
2023-02-06T05:12:44.587Z,1.24
2023-02-06T05:15:46.756Z,1.21
2023-02-06T05:18:52.637Z,1.19
2023-02-06T05:21:54.214Z,1.13
2023-02-06T05:24:55.673Z,1.11
2023-02-06T05:28:00.161Z,1.14
2023-02-06T05:31:02.513Z,1.07
2023-02-06T05:34:04.068Z,1.00
2023-02-06T05:37:05.646Z,0.99
2023-02-06T05:40:08.111Z,1.01
2023-02-06T05:43:09.662Z,1.03
2023-02-06T05:46:12.838Z,1.04
2023-02-06T05:49:14.989Z,1.07
2023-02-06T05:52:16.498Z,1.02
2023-02-06T05:55:18.370Z,0.99
2023-02-06T05:58:19.890Z,0.99
2023-02-06T06:01:21.370Z,1.07
2023-02-06T06:04:22.946Z,1.09
2023-02-06T06:07:24.541Z,1.18
2023-02-06T06:10:26.148Z,1.19
2023-02-06T06:13:27.647Z,1.12
2023-02-06T06:16:29.144Z,1.13
2023-02-06T06:19:30.592Z,1.05
2023-02-06T06:22:32.040Z,1.12
2023-02-06T06:25:35.462Z,1.07
2023-02-06T06:28:38.804Z,1.04
2023-02-06T06:31:40.312Z,1.06
2023-02-06T06:34:41.833Z,1.01
2023-02-06T06:37:43.274Z,0.93
2023-02-06T06:40:44.794Z,0.78
2023-02-06T06:43:46.275Z,0.82
2023-02-06T06:46:47.782Z,0.79
2023-02-06T06:49:49.248Z,0.75
2023-02-06T06:52:50.757Z,0.77
2023-02-06T06:55:52.272Z,0.72
2023-02-06T06:58:53.765Z,0.59
2023-02-06T07:01:55.215Z,0.61
2023-02-06T07:04:56.807Z,0.61
2023-02-06T07:07:58.330Z,0.58
2023-02-06T07:10:59.832Z,0.56
2023-02-06T07:14:01.316Z,0.52
2023-02-06T07:17:02.977Z,0.70
2023-02-06T07:20:04.990Z,0.71
2023-02-06T07:23:06.483Z,0.65
2023-02-06T07:26:08.048Z,0.63
2023-02-06T07:29:09.509Z,0.69
2023-02-06T07:32:11.372Z,0.72
2023-02-06T07:35:15.238Z,0.71
2023-02-06T07:38:16.700Z,0.73
2023-02-06T07:41:18.328Z,0.68
2023-02-06T07:44:19.898Z,0.78
2023-02-06T07:47:21.377Z,0.90
2023-02-06T07:50:22.876Z,1.04
2023-02-06T07:53:24.370Z,1.10
2023-02-06T07:56:25.901Z,1.07
2023-02-06T07:59:27.499Z,0.99
2023-02-06T08:02:29.249Z,0.91
2023-02-06T08:05:32.158Z,1.01
2023-02-06T08:08:33.649Z,1.24
2023-02-06T08:11:35.848Z,1.51
2023-02-06T08:14:37.284Z,1.63
2023-02-06T08:17:38.792Z,1.53
2023-02-06T08:20:40.342Z,1.52
2023-02-06T08:23:42.522Z,1.61
2023-02-06T08:26:44.148Z,1.58
2023-02-06T08:29:45.785Z,1.66
2023-02-06T08:32:47.260Z,1.80
2023-02-06T08:35:48.746Z,1.85
2023-02-06T08:38:51.347Z,2.22
2023-02-06T08:41:52.866Z,2.57
2023-02-06T08:44:54.389Z,2.59
2023-02-06T08:47:55.857Z,2.48
2023-02-06T08:51:08.393Z,2.37
2023-02-06T08:54:17.221Z,2.28
2023-02-06T08:57:18.727Z,2.30
2023-02-06T09:00:20.681Z,2.34
2023-02-06T09:03:23.050Z,2.41
2023-02-06T09:06:25.508Z,2.41
2023-02-06T09:09:27.131Z,2.33
2023-02-06T09:12:28.569Z,2.50
2023-02-06T09:15:30.158Z,2.69
2023-02-06T09:18:31.617Z,2.71
2023-02-06T09:21:34.700Z,2.92
2023-02-06T09:24:37.790Z,3.19
2023-02-06T09:27:39.498Z,3.33
2023-02-06T09:30:41.042Z,3.39
2023-02-06T09:33:42.586Z,3.35
2023-02-06T09:36:44.284Z,3.15
2023-02-06T09:39:45.800Z,3.00
2023-02-06T09:42:50.931Z,2.89
2023-02-06T09:45:59.545Z,2.93
2023-02-06T09:49:06.715Z,3.04
2023-02-06T09:52:45.286Z,3.27
2023-02-06T09:55:58.399Z,3.58
2023-02-06T09:59:02.524Z,3.72
2023-02-06T10:02:06.860Z,3.83
2023-02-06T10:05:34.303Z,3.89
2023-02-06T10:08:57.456Z,3.86
2023-02-06T10:12:04.994Z,3.85
2023-02-06T10:15:25.565Z,3.85
2023-02-06T10:18:48.367Z,3.84
2023-02-06T10:22:01.964Z,3.79
2023-02-06T10:25:28.618Z,4.00
2023-02-06T10:28:31.913Z,4.02
2023-02-06T10:31:45.048Z,4.02
2023-02-06T10:34:55.556Z,4.24
2023-02-06T10:38:18.659Z,4.27
2023-02-06T10:41:57.032Z,4.12
2023-02-06T10:45:38.663Z,4.37
2023-02-06T10:48:46.539Z,4.73
2023-02-06T10:51:53.263Z,4.94
2023-02-06T10:55:03.281Z,5.15
2023-02-06T10:58:40.449Z,5.44
2023-02-06T11:01:44.022Z,5.53
2023-02-06T11:04:52.526Z,5.56
2023-02-06T11:08:08.066Z,5.62
2023-02-06T11:11:25.805Z,5.45
2023-02-06T11:14:39.138Z,5.36
2023-02-06T11:17:40.846Z,5.48
2023-02-06T11:20:44.337Z,5.84
2023-02-06T11:23:47.401Z,6.04
2023-02-06T11:26:56.571Z,5.99
2023-02-06T11:30:08.293Z,6.02
2023-02-06T11:33:22.730Z,6.06
2023-02-06T11:36:30.488Z,5.91
2023-02-06T11:39:33.603Z,5.66
2023-02-06T11:42:36.336Z,5.57
2023-02-06T11:45:38.121Z,5.29
2023-02-06T11:48:56.450Z,4.95
2023-02-06T11:52:00.070Z,4.72
2023-02-06T11:55:02.726Z,4.60
2023-02-06T11:58:13.205Z,4.53
2023-02-06T12:01:20.513Z,4.45
2023-02-06T12:04:31.604Z,4.28
2023-02-06T12:07:53.474Z,4.28
2023-02-06T12:11:02.746Z,4.30
2023-02-06T12:14:15.424Z,4.49
2023-02-06T12:17:27.082Z,4.60
2023-02-06T12:20:32.301Z,4.74
2023-02-06T12:23:42.617Z,4.96
2023-02-06T12:26:47.590Z,4.71
2023-02-06T12:30:30.788Z,4.61
2023-02-06T12:33:42.223Z,4.68
2023-02-06T12:37:10.306Z,4.76
2023-02-06T12:40:20.539Z,4.88
2023-02-06T12:43:22.182Z,4.87
2023-02-06T12:46:26.357Z,4.98
2023-02-06T12:49:35.643Z,4.91
2023-02-06T12:53:14.778Z,4.88
2023-02-06T12:56:42.041Z,5.29
2023-02-06T12:59:57.554Z,5.49
2023-02-06T13:03:27.317Z,5.72
2023-02-06T13:06:33.897Z,6.34
2023-02-06T13:09:41.797Z,6.86
2023-02-06T13:12:43.395Z,7.17
2023-02-06T13:15:54.906Z,7.37
2023-02-06T13:19:03.254Z,6.90
2023-02-06T13:22:10.933Z,6.22
2023-02-06T13:25:30.646Z,5.91
2023-02-06T13:28:38.121Z,5.76
2023-02-06T13:31:39.737Z,5.78
2023-02-06T13:34:47.048Z,5.79
2023-02-06T13:37:50.542Z,5.62
2023-02-06T13:41:34.515Z,5.55
2023-02-06T13:44:38.331Z,5.46
2023-02-06T13:48:00.810Z,5.35
2023-02-06T13:51:52.031Z,5.20
2023-02-06T13:55:13.149Z,5.19
2023-02-06T13:58:33.250Z,5.00
2023-02-06T14:01:36.146Z,4.96
2023-02-06T14:04:39.577Z,4.85
2023-02-06T14:07:57.330Z,4.75
2023-02-06T14:11:19.126Z,4.63
2023-02-06T14:14:52.950Z,4.59
2023-02-06T14:18:17.664Z,4.49
2023-02-06T14:21:25.109Z,4.49
2023-02-06T14:25:04.137Z,4.61
2023-02-06T14:28:11.475Z,4.67
2023-02-06T14:31:46.777Z,4.70
2023-02-06T14:35:05.293Z,4.60
2023-02-06T14:38:09.659Z,4.43
2023-02-06T14:41:11.364Z,4.44
2023-02-06T14:44:21.871Z,4.33
2023-02-06T14:47:29.078Z,4.16
2023-02-06T14:50:34.704Z,4.18
2023-02-06T14:53:38.724Z,4.11
2023-02-06T14:56:40.263Z,4.04
2023-02-06T14:59:58.027Z,4.14
2023-02-06T15:03:05.776Z,4.23
2023-02-06T15:06:10.554Z,4.45
2023-02-06T15:09:33.467Z,4.43
2023-02-06T15:12:37.408Z,4.32
2023-02-06T15:15:53.245Z,4.28
2023-02-06T15:19:18.612Z,4.16
2023-02-06T15:22:33.470Z,4.06
2023-02-06T15:25:58.811Z,3.66
2023-02-06T15:29:02.256Z,3.47
2023-02-06T15:32:20.132Z,3.36
2023-02-06T15:35:24.618Z,3.52
2023-02-06T15:38:28.186Z,3.50
2023-02-06T15:41:31.220Z,3.40
2023-02-06T15:44:35.852Z,3.33
2023-02-06T15:47:41.206Z,3.35
2023-02-06T15:50:55.483Z,3.36
2023-02-06T15:54:08.383Z,3.15
2023-02-06T15:57:24.826Z,3.05
2023-02-06T16:00:31.727Z,3.08
2023-02-06T16:03:33.366Z,3.03
2023-02-06T16:06:35.905Z,2.87
2023-02-06T16:10:08.000Z,2.86
2023-02-06T16:13:14.665Z,2.76
2023-02-06T16:16:16.491Z,2.68
2023-02-06T16:19:37.164Z,2.55
2023-02-06T16:22:39.965Z,2.49
2023-02-06T16:25:41.523Z,2.49
2023-02-06T16:28:53.801Z,2.54
2023-02-06T16:32:17.459Z,2.54
2023-02-06T16:35:19.229Z,2.55
2023-02-06T16:38:20.689Z,2.58
2023-02-06T16:41:37.538Z,2.53
2023-02-06T16:44:44.592Z,2.54
2023-02-06T16:47:47.373Z,2.55
2023-02-06T16:50:49.097Z,2.38
2023-02-06T16:53:51.812Z,2.35
2023-02-06T16:56:55.106Z,2.38
2023-02-06T16:59:57.406Z,2.29
2023-02-06T17:02:59.454Z,2.26
2023-02-06T17:06:00.932Z,2.12
2023-02-06T17:09:08.904Z,2.18
2023-02-06T17:12:15.821Z,2.21
2023-02-06T17:15:18.656Z,2.15
2023-02-06T17:18:21.935Z,2.00
2023-02-06T17:21:24.762Z,1.92
2023-02-06T17:24:26.283Z,1.98
2023-02-06T17:27:27.963Z,1.99
2023-02-06T17:30:29.470Z,1.96
2023-02-06T17:33:30.972Z,1.86
2023-02-06T17:36:33.697Z,1.70
2023-02-06T17:39:35.484Z,1.70
2023-02-06T17:42:37.056Z,1.69
2023-02-06T17:45:39.682Z,1.65
2023-02-06T17:48:43.186Z,1.68
2023-02-06T17:51:45.279Z,1.65
2023-02-06T17:54:46.830Z,1.63
2023-02-06T17:57:48.817Z,1.62
2023-02-06T18:00:50.393Z,1.67
2023-02-06T18:03:52.290Z,1.65
2023-02-06T18:06:54.251Z,1.59
2023-02-06T18:09:56.029Z,1.45
2023-02-06T18:12:57.484Z,1.57
2023-02-06T18:15:59.085Z,1.57
2023-02-06T18:19:01.127Z,1.52
2023-02-06T18:22:02.857Z,1.42
2023-02-06T18:25:05.116Z,1.35
2023-02-06T18:28:07.047Z,1.33
2023-02-06T18:31:29.785Z,1.40
2023-02-06T18:34:33.038Z,1.51
2023-02-06T18:37:35.019Z,1.52
2023-02-06T18:40:41.296Z,1.51
2023-02-06T18:43:42.869Z,1.56
2023-02-06T18:46:44.498Z,1.57
2023-02-06T18:49:46.174Z,1.47
2023-02-06T18:52:48.695Z,1.53
2023-02-06T18:56:08.132Z,1.43
2023-02-06T18:59:09.617Z,1.39
2023-02-06T19:02:11.850Z,1.37
2023-02-06T19:05:13.947Z,1.26
2023-02-06T19:08:15.481Z,1.01
2023-02-06T19:11:17.324Z,0.72
2023-02-06T19:14:22.647Z,0.70
2023-02-06T19:17:27.914Z,0.65
2023-02-06T19:20:29.686Z,0.56
2023-02-06T19:23:31.692Z,0.56
2023-02-06T19:26:34.053Z,0.57
2023-02-06T19:29:36.685Z,0.72
2023-02-06T19:32:38.322Z,0.75
2023-02-06T19:35:41.054Z,0.75
2023-02-06T19:38:43.917Z,0.79
2023-02-06T19:41:45.673Z,0.75
2023-02-06T19:44:51.501Z,0.77
2023-02-06T19:47:53.616Z,0.82
2023-02-06T19:50:55.174Z,0.75
2023-02-06T19:53:58.535Z,0.76
2023-02-06T19:57:00.619Z,0.74
2023-02-06T20:00:02.207Z,0.81
2023-02-06T20:03:06.831Z,0.87
2023-02-06T20:06:10.678Z,0.89
2023-02-06T20:09:13.986Z,0.90
2023-02-06T20:12:15.509Z,0.89
2023-02-06T20:15:17.019Z,0.88
2023-02-06T20:18:18.500Z,0.83
2023-02-06T20:21:32.561Z,0.84
2023-02-06T20:24:34.649Z,0.81
2023-02-06T20:27:36.515Z,0.81
2023-02-06T20:30:38.323Z,0.82
2023-02-06T20:33:41.696Z,0.80
2023-02-06T20:36:44.357Z,0.76
2023-02-06T20:39:46.189Z,0.61
2023-02-06T20:42:47.653Z,0.49
2023-02-06T20:45:49.097Z,0.34
2023-02-06T20:48:56.240Z,0.29
2023-02-06T20:51:58.045Z,0.39
2023-02-06T20:54:59.679Z,0.48
2023-02-06T20:58:01.181Z,0.53
2023-02-06T21:01:10.957Z,0.55
2023-02-06T21:04:16.075Z,0.47
2023-02-06T21:07:20.555Z,0.45
2023-02-06T21:10:22.254Z,0.38
2023-02-06T21:13:23.716Z,0.38
2023-02-06T21:16:26.898Z,0.30
2023-02-06T21:19:29.174Z,0.30
2023-02-06T21:22:30.681Z,0.29
2023-02-06T21:25:32.168Z,0.29
2023-02-06T21:28:35.503Z,0.41
2023-02-06T21:31:38.584Z,0.48
2023-02-06T21:34:40.663Z,0.40
2023-02-06T21:37:42.119Z,0.48
2023-02-06T21:40:44.902Z,0.49
2023-02-06T21:43:46.567Z,0.48
2023-02-06T21:46:48.086Z,0.52
2023-02-06T21:49:49.632Z,0.51
2023-02-06T21:52:51.213Z,0.55
2023-02-06T21:55:52.652Z,0.57
2023-02-06T21:58:54.249Z,0.63
2023-02-06T22:01:55.704Z,0.63
2023-02-06T22:04:59.577Z,0.62
2023-02-06T22:08:01.139Z,0.57
2023-02-06T22:11:10.772Z,0.57
2023-02-06T22:14:14.628Z,0.48
2023-02-06T22:17:16.111Z,0.41
2023-02-06T22:20:17.589Z,0.43
2023-02-06T22:23:19.025Z,0.55
2023-02-06T22:26:21.071Z,0.69
2023-02-06T22:29:22.620Z,0.68
2023-02-06T22:32:24.121Z,0.72
2023-02-06T22:35:25.666Z,0.71
2023-02-06T22:38:27.171Z,0.70
2023-02-06T22:41:29.262Z,0.66
2023-02-06T22:44:30.712Z,0.66
2023-02-06T22:47:32.824Z,0.62
2023-02-06T22:50:35.697Z,0.45
2023-02-06T22:53:38.560Z,0.42
2023-02-06T22:56:42.255Z,0.44
2023-02-06T22:59:43.736Z,0.45
2023-02-06T23:02:45.179Z,0.56
2023-02-06T23:05:46.620Z,0.60
2023-02-06T23:08:48.154Z,0.59
2023-02-06T23:11:50.001Z,0.55
2023-02-06T23:14:51.590Z,0.63
2023-02-06T23:17:53.068Z,0.71
2023-02-06T23:21:13.962Z,0.75
2023-02-06T23:24:15.999Z,0.77
2023-02-06T23:27:19.583Z,0.80
2023-02-06T23:30:21.259Z,0.82
2023-02-06T23:33:23.037Z,0.83
2023-02-06T23:36:26.529Z,0.84
2023-02-06T23:39:28.118Z,0.89
2023-02-06T23:42:29.652Z,0.90
2023-02-06T23:45:31.290Z,0.83
2023-02-06T23:48:33.853Z,0.74
2023-02-06T23:51:37.726Z,0.63
2023-02-06T23:54:39.398Z,0.49
2023-02-06T23:57:41.124Z,0.33
